Time;durP1;ratioP1;P1;durP2;ratioP2;P2;SDS_P1;SDS_P2;PMS_P1;PMS_P2;Temp;Humidity;BMP_temperature;BMP_pressure;BME280_temperature;BME280_humidity;BME280_pressure;Samples;Min_cycle;Max_cycle;Signal;HPM_P1;HPM_P2
2021/05/13 00:01:04;;;;;;;0.70;0.30;;;;;;;;;;6310038;28;20559;-72
2021/05/13 00:04:06;;;;;;;0.55;0.20;;;;;;;;;;6309467;28;20051;-72
2021/05/13 00:07:07;;;;;;;0.63;0.22;;;;;;;;;;6308482;28;20063;-72
2021/05/13 00:10:09;;;;;;;0.73;0.30;;;;;;;;;;6312660;28;20096;-72
2021/05/13 00:13:10;;;;;;;0.20;0.13;;;;;;;;;;6309967;28;20562;-72
2021/05/13 00:16:12;;;;;;;0.60;0.30;;;;;;;;;;6305778;28;20249;-73
2021/05/13 00:19:15;;;;;;;0.50;0.30;;;;;;;;;;6316705;28;20131;-72
2021/05/13 00:22:16;;;;;;;0.60;0.20;;;;;;;;;;6303901;28;20111;-73
2021/05/13 00:25:18;;;;;;;0.43;0.20;;;;;;;;;;6306571;28;20472;-72
2021/05/13 00:28:21;;;;;;;0.70;0.70;;;;;;;;;;6303117;28;20048;-73
2021/05/13 00:31:23;;;;;;;0.25;0.10;;;;;;;;;;6305455;28;20079;-73
2021/05/13 00:34:24;;;;;;;1.02;0.30;;;;;;;;;;6306358;28;20043;-73
2021/05/13 00:37:25;;;;;;;0.30;0.20;;;;;;;;;;6309296;28;20052;-75
2021/05/13 00:40:26;;;;;;;0.35;0.15;;;;;;;;;;6311435;28;20044;-72
2021/05/13 00:43:27;;;;;;;0.22;0.10;;;;;;;;;;6309138;28;20406;-74
2021/05/13 00:46:30;;;;;;;0.20;0.15;;;;;;;;;;6305036;28;20047;-73
2021/05/13 00:49:31;;;;;;;0.20;0.20;;;;;;;;;;6307983;28;20040;-74
2021/05/13 00:52:33;;;;;;;0.22;0.20;;;;;;;;;;6302378;28;20052;-73
2021/05/13 00:55:35;;;;;;;1.08;0.30;;;;;;;;;;6312337;28;20052;-73
2021/05/13 00:58:39;;;;;;;0.80;0.30;;;;;;;;;;6305490;28;20045;-70
2021/05/13 01:01:49;;;;;;;1.30;0.40;;;;;;;;;;6305711;28;20140;-73
2021/05/13 01:04:50;;;;;;;1.85;0.57;;;;;;;;;;6311800;22;20059;-75
2021/05/13 01:07:52;;;;;;;1.52;0.50;;;;;;;;;;6257375;28;20049;-75
2021/05/13 01:10:53;;;;;;;0.68;0.40;;;;;;;;;;6255567;28;20120;-74
2021/05/13 01:13:58;;;;;;;0.90;0.43;;;;;;;;;;6259043;28;20036;-75
2021/05/13 01:17:05;;;;;;;1.67;0.50;;;;;;;;;;6262083;28;20681;-74
2021/05/13 01:20:07;;;;;;;1.48;0.60;;;;;;;;;;6261458;28;20041;-74
2021/05/13 01:23:12;;;;;;;2.22;0.63;;;;;;;;;;6249050;28;20132;-73
2021/05/13 01:26:14;;;;;;;0.80;0.30;;;;;;;;;;6265880;28;20046;-73
2021/05/13 01:29:18;;;;;;;0.70;0.40;;;;;;;;;;6260234;28;20639;-72
2021/05/13 01:32:19;;;;;;;0.98;0.45;;;;;;;;;;6277384;28;20194;-73
2021/05/13 01:35:20;;;;;;;2.72;0.50;;;;;;;;;;6267592;28;20128;-74
2021/05/13 01:38:24;;;;;;;1.75;0.57;;;;;;;;;;6266330;28;20074;-73
2021/05/13 01:41:25;;;;;;;1.07;0.60;;;;;;;;;;6274914;28;20102;-72
2021/05/13 01:44:26;;;;;;;1.13;0.50;;;;;;;;;;6273586;28;20506;-72
2021/05/13 01:47:27;;;;;;;1.65;0.43;;;;;;;;;;6284095;28;20127;-72
2021/05/13 01:50:29;;;;;;;1.55;0.50;;;;;;;;;;6281155;28;20056;-74
2021/05/13 01:53:31;;;;;;;0.73;0.40;;;;;;;;;;6268950;28;20168;-76
2021/05/13 01:56:32;;;;;;;2.25;0.90;;;;;;;;;;6270614;28;20503;-74
2021/05/13 01:59:34;;;;;;;0.77;0.40;;;;;;;;;;6267756;28;20471;-73
2021/05/13 02:02:35;;;;;;;0.68;0.47;;;;;;;;;;6265686;28;20514;-73
2021/05/13 02:05:36;;;;;;;2.50;0.55;;;;;;;;;;6248100;28;637039;-73
2021/05/13 02:08:38;;;;;;;1.63;0.50;;;;;;;;;;6304541;28;20116;-72
2021/05/13 02:11:40;;;;;;;0.57;0.30;;;;;;;;;;6279487;28;20041;-72
2021/05/13 02:14:41;;;;;;;2.92;0.50;;;;;;;;;;6279924;28;20087;-72
2021/05/13 02:17:42;;;;;;;2.55;0.70;;;;;;;;;;6276862;28;20076;-73
2021/05/13 02:20:43;;;;;;;1.65;1.00;;;;;;;;;;6256760;28;20060;-72
2021/05/13 02:23:45;;;;;;;1.48;0.57;;;;;;;;;;6260402;28;20082;-73
2021/05/13 02:26:46;;;;;;;6.82;0.60;;;;;;;;;;6271180;28;20075;-73
2021/05/13 02:29:47;;;;;;;1.58;0.43;;;;;;;;;;6259217;28;20059;-73
2021/05/13 02:32:48;;;;;;;1.75;0.60;;;;;;;;;;6257980;28;20367;-72
2021/05/13 02:35:49;;;;;;;4.05;0.57;;;;;;;;;;6259963;28;20597;-72
2021/05/13 02:38:51;;;;;;;1.65;0.70;;;;;;;;;;6276073;28;20099;-73
2021/05/13 02:41:52;;;;;;;2.08;0.50;;;;;;;;;;6265025;28;20123;-72
2021/05/13 02:44:54;;;;;;;1.92;0.50;;;;;;;;;;6264943;28;20316;-72
2021/05/13 02:47:58;;;;;;;1.15;0.63;;;;;;;;;;6270866;28;20120;-73
2021/05/13 02:50:59;;;;;;;2.03;0.50;;;;;;;;;;6262409;28;20041;-72
2021/05/13 02:54:01;;;;;;;2.53;0.40;;;;;;;;;;6257994;28;20120;-72
2021/05/13 02:57:02;;;;;;;2.28;0.52;;;;;;;;;;6254516;28;20128;-72
2021/05/13 03:00:17;;;;;;;1.42;0.50;;;;;;;;;;6284098;28;20132;-72
2021/05/13 03:03:18;;;;;;;0.70;0.50;;;;;;;;;;6256514;28;20515;-73
2021/05/13 03:06:20;;;;;;;1.95;0.60;;;;;;;;;;6282008;28;20126;-72
2021/05/13 03:09:22;;;;;;;1.08;0.47;;;;;;;;;;6263872;28;20120;-72
2021/05/13 03:12:23;;;;;;;2.50;0.50;;;;;;;;;;6262003;28;20045;-72
2021/05/13 03:15:24;;;;;;;1.00;0.52;;;;;;;;;;6264224;28;20253;-72
2021/05/13 03:18:27;;;;;;;1.52;0.50;;;;;;;;;;6261148;28;20131;-73
2021/05/13 03:21:32;;;;;;;3.42;0.57;;;;;;;;;;6272960;28;20391;-72
2021/05/13 03:24:38;;;;;;;1.92;0.60;;;;;;;;;;6260540;28;20094;-72
2021/05/13 03:27:43;;;;;;;1.63;0.70;;;;;;;;;;6261027;28;20396;-72
2021/05/13 03:30:46;;;;;;;5.20;0.80;;;;;;;;;;6261341;28;20414;-73
2021/05/13 03:33:47;;;;;;;0.75;0.47;;;;;;;;;;6259796;28;20041;-72
2021/05/13 03:36:48;;;;;;;1.40;0.70;;;;;;;;;;6256139;28;20049;-72
2021/05/13 03:39:50;;;;;;;4.72;0.60;;;;;;;;;;6243573;28;20551;-72
2021/05/13 03:42:51;;;;;;;0.98;0.45;;;;;;;;;;6256172;28;20125;-72
2021/05/13 03:45:52;;;;;;;3.13;0.77;;;;;;;;;;6256265;28;20719;-72
2021/05/13 03:48:53;;;;;;;1.02;0.40;;;;;;;;;;6254739;28;20120;-73
2021/05/13 03:51:54;;;;;;;2.55;0.70;;;;;;;;;;6254638;28;20124;-72
2021/05/13 03:54:56;;;;;;;3.20;0.73;;;;;;;;;;6256830;28;20913;-73
2021/05/13 03:57:58;;;;;;;3.05;0.65;;;;;;;;;;6254871;28;20099;-74
2021/05/13 04:01:10;;;;;;;4.20;0.90;;;;;;;;;;6252701;28;20130;-73
2021/05/13 04:04:11;;;;;;;3.03;0.70;;;;;;;;;;6271927;28;20037;-72
2021/05/13 04:07:12;;;;;;;5.85;0.57;;;;;;;;;;6254158;28;20055;-73
2021/05/13 04:10:15;;;;;;;2.35;0.85;;;;;;;;;;6256954;28;20049;-72
2021/05/13 04:13:16;;;;;;;7.22;1.02;;;;;;;;;;6256482;28;20048;-72
2021/05/13 04:16:25;;;;;;;1.92;0.60;;;;;;;;;;6253981;28;20037;-73
2021/05/13 04:19:26;;;;;;;2.33;0.63;;;;;;;;;;6253199;28;20036;-72
2021/05/13 04:22:27;;;;;;;3.05;0.80;;;;;;;;;;6261655;28;20047;-72
2021/05/13 04:25:29;;;;;;;4.68;0.88;;;;;;;;;;6268575;28;20183;-72
2021/05/13 04:28:30;;;;;;;2.97;0.93;;;;;;;;;;6261438;28;20365;-72
2021/05/13 04:31:31;;;;;;;4.70;0.77;;;;;;;;;;6257272;28;20395;-72
2021/05/13 04:34:32;;;;;;;2.45;0.70;;;;;;;;;;6263763;28;20136;-72
2021/05/13 04:37:33;;;;;;;6.43;1.20;;;;;;;;;;6255798;28;20141;-72
2021/05/13 04:40:35;;;;;;;3.88;1.02;;;;;;;;;;6268473;28;20127;-77
2021/05/13 04:43:37;;;;;;;4.90;1.02;;;;;;;;;;6262089;28;20064;-72
2021/05/13 04:46:38;;;;;;;5.10;1.10;;;;;;;;;;6249265;28;20049;-72
2021/05/13 04:49:39;;;;;;;2.40;0.88;;;;;;;;;;6256984;28;20119;-72
2021/05/13 04:52:40;;;;;;;3.63;0.93;;;;;;;;;;6256889;28;20051;-73
2021/05/13 04:55:43;;;;;;;6.10;1.20;;;;;;;;;;6258817;28;20041;-73
2021/05/13 04:58:44;;;;;;;7.72;1.00;;;;;;;;;;6262576;28;20076;-72
2021/05/13 05:01:45;;;;;;;2.33;0.82;;;;;;;;;;6258490;28;20037;-72
2021/05/13 05:04:46;;;;;;;2.72;1.02;;;;;;;;;;6251150;28;20432;-72
2021/05/13 05:07:47;;;;;;;5.50;1.23;;;;;;;;;;6256538;28;20525;-72
2021/05/13 05:10:49;;;;;;;1.83;0.85;;;;;;;;;;6257465;28;20563;-72
2021/05/13 05:13:50;;;;;;;3.15;0.82;;;;;;;;;;6266892;28;20128;-72
2021/05/13 05:16:51;;;;;;;4.35;0.80;;;;;;;;;;6274702;28;20047;-74
2021/05/13 05:19:52;;;;;;;2.97;1.00;;;;;;;;;;6253355;28;20616;-72
2021/05/13 05:22:54;;;;;;;2.53;1.05;;;;;;;;;;6257692;28;20419;-74
2021/05/13 05:25:56;;;;;;;2.05;0.70;;;;;;;;;;6255985;28;20037;-72
2021/05/13 05:28:57;;;;;;;1.77;0.80;;;;;;;;;;6250953;28;20044;-71
2021/05/13 05:31:59;;;;;;;1.95;0.90;;;;;;;;;;6249525;28;20047;-72
2021/05/13 05:35:03;;;;;;;6.93;1.20;;;;;;;;;;6255799;28;20514;-73
2021/05/13 05:38:06;;;;;;;3.05;0.73;;;;;;;;;;6256051;28;20069;-73
2021/05/13 05:41:08;;;;;;;3.10;0.90;;;;;;;;;;6252905;28;20095;-72
2021/05/13 05:44:09;;;;;;;2.83;0.90;;;;;;;;;;6253770;28;20748;-72
2021/05/13 05:47:12;;;;;;;3.83;0.98;;;;;;;;;;6257650;28;20131;-72
2021/05/13 05:50:14;;;;;;;4.10;0.60;;;;;;;;;;6279395;28;20541;-73
2021/05/13 05:53:16;;;;;;;3.63;1.00;;;;;;;;;;6250686;28;20041;-72
2021/05/13 05:56:18;;;;;;;2.30;0.85;;;;;;;;;;6262784;28;20071;-74
2021/05/13 05:59:19;;;;;;;1.58;0.70;;;;;;;;;;6262500;28;20039;-73
2021/05/13 06:02:20;;;;;;;2.53;0.80;;;;;;;;;;6264913;28;20128;-71
2021/05/13 06:05:23;;;;;;;4.22;1.05;;;;;;;;;;6271931;28;20129;-72
2021/05/13 06:08:24;;;;;;;4.87;1.10;;;;;;;;;;6256580;28;20037;-72
2021/05/13 06:11:26;;;;;;;6.43;1.20;;;;;;;;;;6259887;28;20065;-72
2021/05/13 06:14:27;;;;;;;6.57;1.45;;;;;;;;;;6258139;28;20055;-72
2021/05/13 06:17:29;;;;;;;4.68;1.60;;;;;;;;;;6256327;28;20053;-72
2021/05/13 06:20:32;;;;;;;3.80;1.08;;;;;;;;;;6260860;28;20467;-72
2021/05/13 06:23:33;;;;;;;7.70;1.43;;;;;;;;;;6247266;28;20147;-72
2021/05/13 06:26:35;;;;;;;4.75;1.25;;;;;;;;;;6257157;28;20053;-72
2021/05/13 06:29:36;;;;;;;4.75;1.70;;;;;;;;;;6257196;28;20056;-72
2021/05/13 06:32:37;;;;;;;3.83;1.25;;;;;;;;;;6257942;28;20168;-72
2021/05/13 06:35:38;;;;;;;3.88;1.20;;;;;;;;;;6257655;28;20132;-72
2021/05/13 06:38:39;;;;;;;4.57;1.50;;;;;;;;;;6253856;28;20554;-72
2021/05/13 06:41:42;;;;;;;6.22;1.50;;;;;;;;;;6256216;28;20128;-72
2021/05/13 06:44:44;;;;;;;4.00;1.15;;;;;;;;;;6259417;28;20503;-72
2021/05/13 06:47:45;;;;;;;2.70;1.00;;;;;;;;;;6257461;28;20662;-72
2021/05/13 06:50:46;;;;;;;5.07;1.38;;;;;;;;;;6255226;28;20063;-72
2021/05/13 06:53:47;;;;;;;4.07;1.45;;;;;;;;;;6256767;28;20128;-72
2021/05/13 06:56:49;;;;;;;5.82;1.45;;;;;;;;;;6264160;28;20108;-71
2021/05/13 06:59:50;;;;;;;6.28;1.48;;;;;;;;;;6255804;28;20045;-71
2021/05/13 07:02:53;;;;;;;4.18;1.30;;;;;;;;;;6267355;28;20135;-72
2021/05/13 07:05:56;;;;;;;5.40;1.75;;;;;;;;;;6260984;28;20137;-73
2021/05/13 07:08:57;;;;;;;6.18;1.45;;;;;;;;;;6253067;28;20056;-72
2021/05/13 07:11:59;;;;;;;10.80;2.33;;;;;;;;;;6255331;28;20123;-72
2021/05/13 07:15:02;;;;;;;3.85;1.73;;;;;;;;;;6258410;28;20587;-73
2021/05/13 07:18:04;;;;;;;5.20;1.45;;;;;;;;;;6260547;28;20490;-73
2021/05/13 07:21:05;;;;;;;5.05;1.65;;;;;;;;;;6257639;28;20512;-71
2021/05/13 07:24:06;;;;;;;7.65;1.90;;;;;;;;;;6262988;28;20045;-72
2021/05/13 07:27:09;;;;;;;4.78;1.40;;;;;;;;;;6255848;28;20128;-74
2021/05/13 07:30:11;;;;;;;5.85;1.75;;;;;;;;;;6270879;28;20036;-74
2021/05/13 07:33:12;;;;;;;5.05;1.50;;;;;;;;;;6266025;28;20143;-72
2021/05/13 07:36:13;;;;;;;7.30;1.80;;;;;;;;;;6260513;28;20560;-73
2021/05/13 07:39:15;;;;;;;4.05;1.40;;;;;;;;;;6258552;28;20164;-73
2021/05/13 07:42:17;;;;;;;10.70;2.17;;;;;;;;;;6256684;28;20124;-73
2021/05/13 07:45:19;;;;;;;4.88;1.80;;;;;;;;;;6255521;28;20073;-73
2021/05/13 07:48:20;;;;;;;5.90;1.50;;;;;;;;;;6256825;28;20121;-73
2021/05/13 07:51:23;;;;;;;6.30;1.60;;;;;;;;;;6251826;28;20052;-75
2021/05/13 07:54:24;;;;;;;2.70;1.60;;;;;;;;;;6259057;28;20163;-72
2021/05/13 07:57:25;;;;;;;5.95;1.90;;;;;;;;;;6254463;28;20037;-72
2021/05/13 08:00:27;;;;;;;4.00;1.77;;;;;;;;;;6254596;28;20044;-74
2021/05/13 08:03:28;;;;;;;5.25;1.50;;;;;;;;;;6257979;28;20037;-72
2021/05/13 08:06:29;;;;;;;5.72;1.73;;;;;;;;;;6252791;28;20055;-72
2021/05/13 08:09:30;;;;;;;9.80;2.17;;;;;;;;;;6257500;28;20112;-72
2021/05/13 08:12:32;;;;;;;8.13;1.95;;;;;;;;;;6254223;28;20045;-72
2021/05/13 08:15:33;;;;;;;8.32;1.90;;;;;;;;;;6255046;28;20464;-72
2021/05/13 08:18:34;;;;;;;5.25;2.45;;;;;;;;;;6250062;28;20764;-72
2021/05/13 08:21:35;;;;;;;4.60;1.75;;;;;;;;;;6251892;28;20483;-73
2021/05/13 08:24:36;;;;;;;4.47;1.58;;;;;;;;;;6260464;28;20148;-73
2021/05/13 08:27:38;;;;;;;9.45;1.77;;;;;;;;;;6256743;28;20119;-73
2021/05/13 08:30:39;;;;;;;6.00;1.35;;;;;;;;;;6260047;28;20041;-72
2021/05/13 08:33:40;;;;;;;6.65;2.03;;;;;;;;;;6255488;28;20127;-72
2021/05/13 08:36:41;;;;;;;9.25;1.80;;;;;;;;;;6277915;28;20054;-72
2021/05/13 08:39:42;;;;;;;7.13;1.60;;;;;;;;;;6263155;28;20071;-72
2021/05/13 08:42:44;;;;;;;3.15;1.67;;;;;;;;;;6260750;28;20041;-72
2021/05/13 08:45:45;;;;;;;9.45;2.20;;;;;;;;;;6265331;28;20444;-75
2021/05/13 08:48:48;;;;;;;10.88;1.75;;;;;;;;;;6258161;28;20045;-72
2021/05/13 08:51:49;;;;;;;5.72;1.55;;;;;;;;;;6260220;28;20132;-72
2021/05/13 08:54:52;;;;;;;4.45;1.30;;;;;;;;;;6269659;28;20062;-72
2021/05/13 08:57:54;;;;;;;5.07;1.92;;;;;;;;;;6253129;28;20253;-72
2021/05/13 09:00:56;;;;;;;5.07;2.25;;;;;;;;;;6254607;28;20127;-71
2021/05/13 09:03:58;;;;;;;6.32;2.38;;;;;;;;;;6254864;28;20080;-71
2021/05/13 09:07:09;;;;;;;7.53;1.77;;;;;;;;;;6252076;28;20495;-69
2021/05/13 09:10:12;;;;;;;6.28;1.73;;;;;;;;;;6257084;28;20080;-72
2021/05/13 09:13:26;;;;;;;4.03;1.52;;;;;;;;;;6261557;28;20148;-72
2021/05/13 09:16:29;;;;;;;7.07;1.83;;;;;;;;;;6269904;28;20093;-72
2021/05/13 09:19:31;;;;;;;5.47;2.10;;;;;;;;;;6269712;28;20363;-72
2021/05/13 09:22:33;;;;;;;6.40;1.77;;;;;;;;;;6271404;28;20402;-71
2021/05/13 09:25:34;;;;;;;7.70;2.10;;;;;;;;;;6276601;28;20803;-74
2021/05/13 09:28:36;;;;;;;4.45;1.52;;;;;;;;;;6266596;28;20056;-72
2021/05/13 09:31:40;;;;;;;7.50;2.00;;;;;;;;;;6255088;28;20496;-72
2021/05/13 09:34:41;;;;;;;4.70;1.75;;;;;;;;;;6255413;28;20141;-72
2021/05/13 09:37:45;;;;;;;5.25;1.52;;;;;;;;;;6254708;28;20152;-74
2021/05/13 09:40:50;;;;;;;;;;;;;;;;;;6256981;28;20112;-72
2021/05/13 09:43:52;;;;;;;3.30;1.40;;;;;;;;;;6253041;28;20292;-73
2021/05/13 09:46:55;;;;;;;3.25;1.50;;;;;;;;;;6253817;28;20104;-73
2021/05/13 09:50:04;;;;;;;2.67;0.90;;;;;;;;;;6252019;28;20037;-73
2021/05/13 09:53:06;;;;;;;4.03;1.38;;;;;;;;;;6247322;28;20046;-74
2021/05/13 09:56:21;;;;;;;4.80;1.35;;;;;;;;;;6266059;28;20033;-74
2021/05/13 09:59:24;;;;;;;6.18;1.40;;;;;;;;;;6284805;28;20059;-73
2021/05/13 10:02:25;;;;;;;;;;;;;;;;;;6290944;28;20036;-73
2021/05/13 10:05:27;;;;;;;4.68;1.73;;;;;;;;;;6290499;28;19950;-74
2021/05/13 10:08:28;;;;;;;7.10;1.60;;;;;;;;;;6286532;28;20056;-74
2021/05/13 10:11:29;;;;;;;4.13;1.45;;;;;;;;;;6291348;28;20127;-74
2021/05/13 10:14:31;;;;;;;5.38;2.10;;;;;;;;;;6289841;28;20050;-73
2021/05/13 10:17:32;;;;;;;5.40;1.95;;;;;;;;;;6291391;28;20174;-74
2021/05/13 10:20:34;;;;;;;3.80;1.15;;;;;;;;;;6286666;28;20143;-74
2021/05/13 10:23:36;;;;;;;3.72;1.40;;;;;;;;;;6290646;28;20114;-76
2021/05/13 10:26:48;;;;;;;5.68;1.55;;;;;;;;;;6293248;28;20123;-78
2021/05/13 10:30:00;;;;;;;4.32;1.50;;;;;;;;;;6282869;28;20079;-77
2021/05/13 10:33:19;;;;;;;3.55;1.52;;;;;;;;;;6287692;28;20041;-75
2021/05/13 10:36:20;;;;;;;4.30;1.50;;;;;;;;;;6288263;28;20040;-75
2021/05/13 10:39:21;;;;;;;3.00;1.30;;;;;;;;;;6292014;28;20135;-75
2021/05/13 10:42:30;;;;;;;5.32;1.70;;;;;;;;;;6289803;28;20068;-76
2021/05/13 10:45:37;;;;;;;2.53;1.40;;;;;;;;;;6280606;28;20120;-77
2021/05/13 10:48:39;;;;;;;3.67;1.58;;;;;;;;;;6298432;28;20486;-76
2021/05/13 10:51:41;;;;;;;2.85;1.40;;;;;;;;;;6261318;28;20158;-76
2021/05/13 10:54:45;;;;;;;7.35;2.08;;;;;;;;;;6288918;28;20045;-75
2021/05/13 10:57:48;;;;;;;3.17;1.27;;;;;;;;;;6282493;28;20111;-76
2021/05/13 11:00:50;;;;;;;3.90;1.45;;;;;;;;;;6300431;28;20127;-73
2021/05/13 11:04:34;;;;;;;6.47;1.40;;;;;;;;;;6294594;28;20040;-73
2021/05/13 11:07:35;;;;;;;5.13;1.65;;;;;;;;;;6295473;28;20086;-75
2021/05/13 11:10:54;;;;;;;4.18;1.90;;;;;;;;;;6296510;28;20040;-76
2021/05/13 11:13:55;;;;;;;6.55;1.80;;;;;;;;;;6287145;28;20044;-75
2021/05/13 11:17:01;;;;;;;6.93;1.58;;;;;;;;;;6290451;28;20067;-74
2021/05/13 11:20:18;;;;;;;2.80;1.83;;;;;;;;;;6285941;28;20424;-75
2021/05/13 11:23:22;;;;;;;6.13;1.80;;;;;;;;;;6284758;28;20123;-74
2021/05/13 11:26:23;;;;;;;4.03;1.33;;;;;;;;;;6278938;28;20045;-75
2021/05/13 11:29:24;;;;;;;5.28;1.20;;;;;;;;;;6284633;28;20123;-75
2021/05/13 11:32:27;;;;;;;4.47;1.60;;;;;;;;;;6283472;28;20119;-78
2021/05/13 11:35:28;;;;;;;11.55;1.60;;;;;;;;;;6284139;28;20055;-76
2021/05/13 11:38:29;;;;;;;5.85;1.40;;;;;;;;;;6281774;28;21002;-76
2021/05/13 11:41:30;;;;;;;2.90;1.25;;;;;;;;;;6277568;28;20127;-75
2021/05/13 11:44:31;;;;;;;5.80;1.35;;;;;;;;;;6281940;28;20471;-75
2021/05/13 11:47:33;;;;;;;3.97;1.58;;;;;;;;;;6261198;28;20132;-75
2021/05/13 11:50:34;;;;;;;7.80;2.00;;;;;;;;;;6251668;28;20057;-76
2021/05/13 11:53:36;;;;;;;3.97;1.45;;;;;;;;;;6257689;28;20441;-75
2021/05/13 11:56:38;;;;;;;3.70;1.20;;;;;;;;;;6262676;28;20447;-74
2021/05/13 11:59:39;;;;;;;4.97;1.50;;;;;;;;;;6260876;28;20053;-75
2021/05/13 12:02:41;;;;;;;5.65;1.50;;;;;;;;;;6264549;28;20080;-76
2021/05/13 12:05:47;;;;;;;2.92;1.10;;;;;;;;;;6261185;28;20069;-75
2021/05/13 12:08:48;;;;;;;3.45;1.25;;;;;;;;;;6277428;28;20105;-72
2021/05/13 12:11:50;;;;;;;3.92;1.40;;;;;;;;;;6259187;28;20771;-72
2021/05/13 12:14:51;;;;;;;3.60;1.20;;;;;;;;;;6255457;28;20049;-73
2021/05/13 12:17:53;;;;;;;4.40;1.40;;;;;;;;;;6261585;28;20278;-72
2021/05/13 12:20:54;;;;;;;3.72;1.40;;;;;;;;;;6279929;28;20064;-74
2021/05/13 12:23:57;;;;;;;3.80;1.50;;;;;;;;;;6258343;28;20471;-73
2021/05/13 12:26:58;;;;;;;2.65;1.08;;;;;;;;;;6255670;28;20919;-74
2021/05/13 12:29:59;;;;;;;4.07;1.40;;;;;;;;;;6253281;28;20555;-74
2021/05/13 12:33:20;;;;;;;4.88;1.55;;;;;;;;;;6252529;28;20124;-73
2021/05/13 12:36:21;;;;;;;2.78;1.17;;;;;;;;;;6260424;28;20188;-75
2021/05/13 12:39:28;;;;;;;5.55;1.35;;;;;;;;;;6251005;28;20078;-72
2021/05/13 12:42:30;;;;;;;2.53;1.20;;;;;;;;;;6249104;28;20049;-70
2021/05/13 12:45:41;;;;;;;2.60;1.07;;;;;;;;;;6272215;28;20051;-76
2021/05/13 12:48:43;;;;;;;3.90;0.88;;;;;;;;;;6254200;28;20134;-75
2021/05/13 12:51:58;;;;;;;3.37;1.27;;;;;;;;;;6276739;28;20483;-75
2021/05/13 12:55:16;;;;;;;5.05;1.30;;;;;;;;;;6264685;28;20447;-75
2021/05/13 12:58:18;;;;;;;3.95;1.20;;;;;;;;;;6258099;28;20129;-72
2021/05/13 13:01:19;;;;;;;3.88;1.10;;;;;;;;;;6253152;28;20053;-73
2021/05/13 13:04:21;;;;;;;3.88;1.00;;;;;;;;;;6249326;28;20037;-73
2021/05/13 13:07:34;;;;;;;2.03;0.90;;;;;;;;;;6252475;28;20108;-73
2021/05/13 13:10:39;;;;;;;2.65;0.90;;;;;;;;;;6252636;28;20132;-72
2021/05/13 13:13:44;;;;;;;2.53;0.82;;;;;;;;;;6257931;28;20183;-73
2021/05/13 13:16:45;;;;;;;2.65;1.20;;;;;;;;;;6253578;28;20050;-72
2021/05/13 13:20:00;;;;;;;2.63;0.95;;;;;;;;;;6256544;28;20043;-73
2021/05/13 13:23:19;;;;;;;2.45;1.10;;;;;;;;;;6251196;28;20045;-73
2021/05/13 13:26:20;;;;;;;1.65;0.73;;;;;;;;;;6277423;28;20139;-74
2021/05/13 13:29:21;;;;;;;7.15;1.35;;;;;;;;;;6263500;28;20127;-72
2021/05/13 13:32:22;;;;;;;3.58;0.90;;;;;;;;;;6258052;28;20069;-73
2021/05/13 13:35:26;;;;;;;3.65;0.93;;;;;;;;;;6261363;28;20041;-73
2021/05/13 13:38:28;;;;;;;1.67;0.70;;;;;;;;;;6287807;28;20181;-73
2021/05/13 13:41:30;;;;;;;2.75;0.70;;;;;;;;;;6280693;28;20181;-73
2021/05/13 13:44:31;;;;;;;4.05;0.85;;;;;;;;;;6275828;28;20464;-73
2021/05/13 13:47:33;;;;;;;8.43;1.10;;;;;;;;;;6271448;28;20102;-73
2021/05/13 13:50:36;;;;;;;2.25;1.00;;;;;;;;;;6257739;28;20120;-73
2021/05/13 13:53:38;;;;;;;1.77;0.80;;;;;;;;;;6259828;28;20045;-73
2021/05/13 13:56:39;;;;;;;;;;;;;;;;;;6260796;28;20124;-73
2021/05/13 13:59:41;;;;;;;1.40;0.68;;;;;;;;;;6259976;28;19921;-73
2021/05/13 14:02:43;;;;;;;2.97;0.83;;;;;;;;;;6266070;28;20175;-74
2021/05/13 14:05:45;;;;;;;5.95;0.85;;;;;;;;;;6259685;28;20107;-74
2021/05/13 14:08:46;;;;;;;1.90;0.80;;;;;;;;;;6256734;28;20132;-73
2021/05/13 14:11:49;;;;;;;4.50;0.80;;;;;;;;;;6253253;28;20183;-73
2021/05/13 14:14:51;;;;;;;;;;;;;;;;;;6269251;28;20528;-73
2021/05/13 14:17:52;;;;;;;2.97;0.73;;;;;;;;;;6264440;28;19916;-73
2021/05/13 14:20:54;;;;;;;2.60;0.88;;;;;;;;;;6264511;28;20053;-73
2021/05/13 14:23:56;;;;;;;3.43;0.77;;;;;;;;;;6261126;28;20049;-73
2021/05/13 14:26:57;;;;;;;5.55;0.70;;;;;;;;;;6262653;28;20061;-73
2021/05/13 14:29:58;;;;;;;2.08;0.60;;;;;;;;;;6259249;28;20044;-73
2021/05/13 14:32:59;;;;;;;1.30;0.70;;;;;;;;;;6253499;28;20061;-73
2021/05/13 14:36:01;;;;;;;0.80;0.50;;;;;;;;;;6258425;28;20172;-73
2021/05/13 14:39:03;;;;;;;2.15;0.60;;;;;;;;;;6253671;28;20061;-73
2021/05/13 14:42:05;;;;;;;4.13;0.90;;;;;;;;;;6250457;28;20071;-73
2021/05/13 14:45:07;;;;;;;1.60;0.45;;;;;;;;;;6253066;28;20071;-73
2021/05/13 14:48:15;;;;;;;3.28;0.50;;;;;;;;;;6259111;28;20043;-73
2021/05/13 14:51:17;;;;;;;3.38;0.80;;;;;;;;;;6255600;28;20056;-73
2021/05/13 14:54:18;;;;;;;1.90;0.47;;;;;;;;;;6245546;28;21590;-73
2021/05/13 14:57:19;;;;;;;1.13;0.60;;;;;;;;;;6248420;28;20191;-73
2021/05/13 15:00:22;;;;;;;3.90;1.02;;;;;;;;;;6259972;28;20144;-73
2021/05/13 15:03:27;;;;;;;7.57;1.17;;;;;;;;;;6258111;28;20482;-74
2021/05/13 15:06:29;;;;;;;7.60;0.80;;;;;;;;;;6258173;28;20150;-73
2021/05/13 15:09:30;;;;;;;13.47;1.13;;;;;;;;;;6262563;28;20060;-73
2021/05/13 15:12:31;;;;;;;9.80;1.42;;;;;;;;;;6259433;28;20114;-73
2021/05/13 15:15:32;;;;;;;5.82;0.80;;;;;;;;;;6254110;28;20064;-73
2021/05/13 15:18:34;;;;;;;16.95;1.48;;;;;;;;;;6271404;28;20058;-72
2021/05/13 15:21:36;;;;;;;10.75;0.90;;;;;;;;;;6259108;28;20484;-72
2021/05/13 15:24:37;;;;;;;2.38;0.60;;;;;;;;;;6271276;28;20122;-71
2021/05/13 15:27:38;;;;;;;4.63;0.60;;;;;;;;;;6265123;28;20645;-72
2021/05/13 15:30:40;;;;;;;4.22;0.68;;;;;;;;;;6258035;28;20041;-72
2021/05/13 15:33:41;;;;;;;3.50;0.90;;;;;;;;;;6251220;28;20086;-73
2021/05/13 15:36:45;;;;;;;3.63;0.55;;;;;;;;;;6257691;28;20392;-72
2021/05/13 15:39:48;;;;;;;5.80;0.85;;;;;;;;;;6250671;28;20045;-73
2021/05/13 15:42:49;;;;;;;10.95;1.00;;;;;;;;;;6253528;28;20060;-72
2021/05/13 15:45:50;;;;;;;2.72;0.70;;;;;;;;;;6254334;28;20118;-72
2021/05/13 15:48:51;;;;;;;4.20;0.98;;;;;;;;;;6254955;28;20138;-72
2021/05/13 15:51:53;;;;;;;2.08;0.52;;;;;;;;;;6263074;28;20056;-73
2021/05/13 15:54:54;;;;;;;1.33;0.50;;;;;;;;;;6265453;28;20279;-72
2021/05/13 15:57:56;;;;;;;7.05;1.95;;;;;;;;;;6263529;28;20443;-72
2021/05/13 16:00:57;;;;;;;4.20;0.70;;;;;;;;;;6263025;28;20041;-73
2021/05/13 16:03:58;;;;;;;4.28;0.57;;;;;;;;;;6260082;28;20044;-72
2021/05/13 16:07:00;;;;;;;4.88;0.80;;;;;;;;;;6254416;28;20094;-72
2021/05/13 16:10:01;;;;;;;1.70;1.00;;;;;;;;;;6260909;28;20048;-73
2021/05/13 16:13:10;;;;;;;1.10;0.50;;;;;;;;;;6267264;28;20048;-72
2021/05/13 16:16:11;;;;;;;2.00;1.08;;;;;;;;;;6255632;28;20103;-73
2021/05/13 16:19:12;;;;;;;3.40;1.30;;;;;;;;;;6253912;28;20462;-72
2021/05/13 16:22:14;;;;;;;1.83;0.70;;;;;;;;;;6255107;28;20119;-73
2021/05/13 16:25:15;;;;;;;2.17;0.75;;;;;;;;;;6254737;28;20131;-73
2021/05/13 16:28:16;;;;;;;5.72;0.60;;;;;;;;;;6254048;28;20060;-73
2021/05/13 16:31:17;;;;;;;2.55;0.90;;;;;;;;;;6255971;28;20176;-73
2021/05/13 16:34:18;;;;;;;1.45;0.50;;;;;;;;;;6268742;28;20079;-73
2021/05/13 16:37:20;;;;;;;4.05;0.70;;;;;;;;;;6254210;28;20506;-74
2021/05/13 16:40:22;;;;;;;1.05;0.68;;;;;;;;;;6281813;28;20086;-73
2021/05/13 16:43:23;;;;;;;0.85;0.40;;;;;;;;;;6262516;28;20059;-73
2021/05/13 16:46:24;;;;;;;4.28;0.70;;;;;;;;;;6253154;28;20125;-72
2021/05/13 16:49:26;;;;;;;0.95;0.55;;;;;;;;;;6249693;28;20159;-74
2021/05/13 16:52:28;;;;;;;2.85;0.80;;;;;;;;;;6267670;28;20117;-73
2021/05/13 16:55:29;;;;;;;1.30;0.65;;;;;;;;;;6262623;28;20052;-73
2021/05/13 16:58:30;;;;;;;0.95;0.50;;;;;;;;;;6252669;28;20068;-73
2021/05/13 17:01:31;;;;;;;4.93;0.63;;;;;;;;;;6253538;28;20130;-73
2021/05/13 17:04:34;;;;;;;2.60;1.38;;;;;;;;;;6259640;28;20067;-73
2021/05/13 17:07:37;;;;;;;2.10;0.47;;;;;;;;;;6248463;28;20080;-72
2021/05/13 17:10:38;;;;;;;1.33;0.60;;;;;;;;;;6273030;28;20041;-73
2021/05/13 17:13:39;;;;;;;1.70;0.68;;;;;;;;;;6265552;28;20067;-74
2021/05/13 17:16:40;;;;;;;1.20;0.45;;;;;;;;;;6262349;28;20136;-74
2021/05/13 17:19:41;;;;;;;1.42;0.60;;;;;;;;;;6253485;28;20430;-74
2021/05/13 17:22:44;;;;;;;0.68;0.45;;;;;;;;;;6271189;28;20428;-71
2021/05/13 17:25:45;;;;;;;4.00;0.80;;;;;;;;;;6273291;28;20049;-72
2021/05/13 17:28:46;;;;;;;0.93;0.52;;;;;;;;;;6280292;28;20134;-71
2021/05/13 17:31:47;;;;;;;1.27;0.63;;;;;;;;;;6257023;28;20056;-73
2021/05/13 17:34:48;;;;;;;2.20;0.80;;;;;;;;;;6255012;28;20482;-73
2021/05/13 17:37:50;;;;;;;2.67;1.08;;;;;;;;;;6255520;28;20049;-73
2021/05/13 17:40:51;;;;;;;1.30;0.80;;;;;;;;;;6255021;28;20065;-73
2021/05/13 17:43:52;;;;;;;1.02;0.60;;;;;;;;;;6268851;28;20485;-73
2021/05/13 17:46:54;;;;;;;3.83;0.80;;;;;;;;;;6264275;28;20076;-74
2021/05/13 17:49:55;;;;;;;2.47;0.80;;;;;;;;;;6263296;28;20137;-73
2021/05/13 17:52:57;;;;;;;2.45;0.68;;;;;;;;;;6259228;28;20068;-74
2021/05/13 17:56:00;;;;;;;1.52;0.60;;;;;;;;;;6255955;28;20147;-74
2021/05/13 17:59:02;;;;;;;1.25;0.70;;;;;;;;;;6262025;28;20107;-72
2021/05/13 18:02:03;;;;;;;1.63;0.70;;;;;;;;;;6259081;28;20225;-72
2021/05/13 18:05:07;;;;;;;1.95;0.77;;;;;;;;;;6262610;28;20098;-72
2021/05/13 18:08:09;;;;;;;2.33;1.33;;;;;;;;;;6258044;28;20051;-73
2021/05/13 18:11:10;;;;;;;2.60;0.70;;;;;;;;;;6274513;28;20115;-73
2021/05/13 18:14:12;;;;;;;0.63;0.50;;;;;;;;;;6257427;28;20131;-72